Time;durP1;ratioP1;P1;durP2;ratioP2;P2;SDS_P1;SDS_P2;PMS_P1;PMS_P2;Temp;Humidity;BMP_temperature;BMP_pressure;BME280_temperature;BME280_humidity;BME280_pressure;Samples;Min_cycle;Max_cycle;Signal;HPM_P1;HPM_P2
2024/02/27 00:00:51;;;;;;;27.15;15.63;;;;;;;3.40;100.00;101329.50;5061347;28;20033;-80
2024/02/27 00:03:16;;;;;;;26.15;14.95;;;;;;;3.44;100.00;101334.91;5061484;28;20067;-75
2024/02/27 00:05:41;;;;;;;26.38;14.93;;;;;;;3.43;100.00;101330.50;5061510;28;20113;-77
2024/02/27 00:08:07;;;;;;;26.90;15.27;;;;;;;3.40;100.00;101339.94;5061366;28;20033;-77
2024/02/27 00:10:33;;;;;;;27.83;16.08;;;;;;;3.38;100.00;101339.88;5063699;28;20036;-80
2024/02/27 00:12:58;;;;;;;27.42;15.85;;;;;;;3.37;100.00;101345.94;5060626;28;20436;-76
2024/02/27 00:15:23;;;;;;;26.98;15.75;;;;;;;3.38;100.00;101342.50;5063549;28;20025;-77
2024/02/27 00:17:49;;;;;;;26.88;15.15;;;;;;;3.37;100.00;101343.31;5061478;28;20036;-79
2024/02/27 00:20:14;;;;;;;27.98;16.08;;;;;;;3.38;100.00;101350.34;5062392;28;20029;-74
2024/02/27 00:22:40;;;;;;;27.23;15.65;;;;;;;3.36;100.00;101351.09;5044905;28;20031;-74
2024/02/27 00:25:05;;;;;;;27.50;16.00;;;;;;;3.35;100.00;101355.44;5060882;28;20033;-73
2024/02/27 00:27:31;;;;;;;27.70;15.93;;;;;;;3.32;100.00;101360.53;5063961;28;20475;-78
2024/02/27 00:29:56;;;;;;;26.08;15.18;;;;;;;3.29;100.00;101363.00;5059255;28;20431;-78
2024/02/27 00:32:21;;;;;;;27.20;15.88;;;;;;;3.25;100.00;101362.00;5063231;28;20035;-76
2024/02/27 00:34:47;;;;;;;26.88;15.43;;;;;;;3.23;100.00;101368.88;5061689;28;20060;-74
2024/02/27 00:37:12;;;;;;;28.20;16.65;;;;;;;3.21;100.00;101367.91;5060554;28;20498;-74
2024/02/27 00:39:37;;;;;;;27.92;15.98;;;;;;;3.21;100.00;101367.03;5063150;28;20029;-74
2024/02/27 00:42:04;;;;;;;27.42;16.00;;;;;;;3.18;100.00;101364.28;5060448;28;20029;-74
2024/02/27 00:44:29;;;;;;;28.25;16.83;;;;;;;3.17;100.00;101365.09;5063453;28;20037;-75
2024/02/27 00:46:55;;;;;;;28.13;16.45;;;;;;;3.11;100.00;101366.63;5060593;28;20040;-74
2024/02/27 00:49:20;;;;;;;30.08;16.48;;;;;;;3.10;100.00;101372.69;5062569;28;20036;-74
2024/02/27 00:51:45;;;;;;;28.10;16.65;;;;;;;3.06;100.00;101380.31;5063522;28;20365;-74
2024/02/27 00:54:11;;;;;;;28.38;16.15;;;;;;;3.06;100.00;101370.75;5065432;28;20434;-74
2024/02/27 00:56:36;;;;;;;28.40;16.02;;;;;;;3.02;100.00;101374.06;5066651;28;20027;-74
2024/02/27 00:59:02;;;;;;;27.65;16.38;;;;;;;2.99;100.00;101376.56;5063686;28;20113;-74
2024/02/27 01:01:27;;;;;;;27.95;16.77;;;;;;;2.95;100.00;101369.41;5059951;28;20032;-74
2024/02/27 01:03:52;;;;;;;28.92;17.20;;;;;;;2.95;100.00;101366.78;5066466;28;20111;-73
2024/02/27 01:06:18;;;;;;;28.88;17.80;;;;;;;2.94;100.00;101367.59;5065287;28;20053;-74
2024/02/27 01:08:43;;;;;;;28.77;17.45;;;;;;;2.92;100.00;101366.66;5065139;28;20043;-74
2024/02/27 01:11:09;;;;;;;29.33;17.58;;;;;;;2.90;100.00;101358.75;5064944;28;20435;-74
2024/02/27 01:13:34;;;;;;;28.48;17.05;;;;;;;2.90;100.00;101371.81;5064075;28;20114;-76
2024/02/27 01:15:59;;;;;;;28.83;17.75;;;;;;;2.90;100.00;101370.94;5066839;28;20032;-74
2024/02/27 01:18:25;;;;;;;29.55;17.20;;;;;;;2.90;100.00;101370.94;5063869;28;20033;-74
2024/02/27 01:20:50;;;;;;;28.92;17.38;;;;;;;2.86;100.00;101371.63;5066187;28;20025;-78
2024/02/27 01:23:15;;;;;;;30.00;18.05;;;;;;;2.83;100.00;101380.19;5064981;28;20029;-81
2024/02/27 01:25:41;;;;;;;29.63;17.13;;;;;;;2.82;100.00;101380.13;5064854;28;20029;-75
2024/02/27 01:28:06;;;;;;;29.20;17.67;;;;;;;2.83;100.00;101381.94;5066670;28;20032;-77
2024/02/27 01:30:31;;;;;;;28.45;17.15;;;;;;;2.84;100.00;101387.22;5063177;28;20395;-77
2024/02/27 01:32:57;;;;;;;29.02;17.65;;;;;;;2.86;100.00;101387.28;5066597;28;20090;-78
2024/02/27 01:35:22;;;;;;;29.10;17.85;;;;;;;2.87;100.00;101392.56;5063991;28;20049;-76
2024/02/27 01:37:47;;;;;;;29.88;17.63;;;;;;;2.86;100.00;101388.16;5065505;28;20041;-75
2024/02/27 01:40:13;;;;;;;29.67;17.65;;;;;;;2.88;100.00;101398.69;5065538;28;20025;-77
2024/02/27 01:42:39;;;;;;;29.80;18.13;;;;;;;2.90;100.00;101397.06;5063988;28;20395;-80
2024/02/27 01:45:06;;;;;;;29.55;18.23;;;;;;;2.90;100.00;101389.22;5066147;28;20115;-74
2024/02/27 01:47:32;;;;;;;30.08;18.15;;;;;;;2.92;100.00;101391.03;5061886;28;20064;-78
2024/02/27 01:49:58;;;;;;;29.30;18.20;;;;;;;2.92;100.00;101392.78;5066299;28;20131;-75
2024/02/27 01:52:23;;;;;;;29.40;17.80;;;;;;;2.93;100.00;101394.56;5063465;28;20086;-80
2024/02/27 01:54:51;;;;;;;29.20;17.80;;;;;;;2.94;100.00;101393.72;5065184;28;20065;-78
2024/02/27 01:57:19;;;;;;;30.10;18.75;;;;;;;2.93;100.00;101400.69;5064223;28;20471;-76
2024/02/27 01:59:45;;;;;;;30.25;18.05;;;;;;;3.00;100.00;101394.03;5064343;28;20559;-82
2024/02/27 02:02:11;;;;;;;29.80;18.58;;;;;;;2.99;100.00;101409.63;5065040;28;20063;-82
2024/02/27 02:04:37;;;;;;;30.08;17.98;;;;;;;2.96;100.00;101407.75;5064412;28;20103;-83
2024/02/27 02:07:03;;;;;;;31.42;18.10;;;;;;;2.96;100.00;101407.75;5065971;28;20036;-76
2024/02/27 02:09:28;;;;;;;30.08;18.25;;;;;;;2.96;100.00;101413.88;5058643;28;20040;-82
2024/02/27 02:11:53;;;;;;;29.85;17.40;;;;;;;2.99;100.00;101413.13;5065210;28;20103;-82
2024/02/27 02:14:20;;;;;;;30.15;18.17;;;;;;;2.99;100.00;101413.13;5063666;28;20032;-81
2024/02/27 02:16:46;;;;;;;30.27;18.73;;;;;;;2.97;100.00;101413.06;5064139;28;20020;-82
2024/02/27 02:19:11;;;;;;;29.67;17.90;;;;;;;2.97;100.00;101423.50;5064535;28;20078;-81
2024/02/27 02:21:37;;;;;;;29.27;17.75;;;;;;;2.96;100.00;101426.94;5062721;28;20021;-79
2024/02/27 02:24:02;;;;;;;29.33;18.10;;;;;;;2.98;100.00;101432.22;5064615;28;20067;-81
2024/02/27 02:26:30;;;;;;;29.10;18.23;;;;;;;2.94;100.00;101428.59;5062309;28;20035;-82
2024/02/27 02:28:56;;;;;;;30.20;18.40;;;;;;;2.95;100.00;101429.47;5047078;28;20086;-82
2024/02/27 02:31:22;;;;;;;29.35;17.80;;;;;;;2.96;100.00;101433.88;5063088;28;20037;-78
2024/02/27 02:33:47;;;;;;;29.70;18.10;;;;;;;2.96;100.00;101431.28;5063944;28;20527;-77
2024/02/27 02:36:12;;;;;;;29.80;18.50;;;;;;;2.96;100.00;101434.75;5064185;28;20029;-74
2024/02/27 02:38:38;;;;;;;30.27;18.27;;;;;;;2.95;100.00;101446.03;5062827;28;20032;-74
2024/02/27 02:41:03;;;;;;;30.10;18.60;;;;;;;2.95;100.00;101453.88;5065344;28;20021;-74
2024/02/27 02:43:28;;;;;;;30.48;18.50;;;;;;;2.96;100.00;101450.44;5060784;28;20033;-74
2024/02/27 02:45:54;;;;;;;28.90;17.25;;;;;;;2.95;100.00;101442.53;5064602;28;20025;-74
2024/02/27 02:48:19;;;;;;;30.65;18.15;;;;;;;2.93;100.00;101438.97;5062944;28;20027;-74
2024/02/27 02:50:45;;;;;;;29.73;17.85;;;;;;;2.91;100.00;101443.22;5062152;28;20033;-74
2024/02/27 02:53:11;;;;;;;29.77;17.83;;;;;;;2.92;100.00;101447.63;5064067;28;20451;-74
2024/02/27 02:55:40;;;;;;;29.73;18.48;;;;;;;2.94;100.00;101451.19;5061011;28;20104;-75
2024/02/27 02:58:06;;;;;;;29.83;17.85;;;;;;;2.93;100.00;101452.03;5064698;28;20438;-74
2024/02/27 03:00:31;;;;;;;29.40;18.20;;;;;;;2.96;100.00;101462.63;5061529;28;20025;-74
2024/02/27 03:02:57;;;;;;;30.30;18.17;;;;;;;2.95;100.00;101463.44;5064593;28;20401;-74
2024/02/27 03:05:22;;;;;;;30.13;18.33;;;;;;;2.92;100.00;101465.91;5060962;28;20460;-74
2024/02/27 03:07:47;;;;;;;29.65;17.98;;;;;;;2.93;100.00;101465.97;5063385;28;20033;-74
2024/02/27 03:10:13;;;;;;;28.70;17.50;;;;;;;2.92;100.00;101458.06;5063474;28;20530;-74
2024/02/27 03:12:39;;;;;;;29.65;17.77;;;;;;;2.93;100.00;101462.47;5062220;28;20087;-74
2024/02/27 03:15:06;;;;;;;30.02;18.27;;;;;;;2.92;100.00;101461.56;5063627;28;20029;-74
2024/02/27 03:17:31;;;;;;;30.75;18.15;;;;;;;2.92;100.00;101452.84;5061257;28;20112;-74
2024/02/27 03:19:56;;;;;;;29.65;17.70;;;;;;;2.90;100.00;101452.78;5064563;28;20116;-74
2024/02/27 03:22:22;;;;;;;29.30;17.35;;;;;;;2.90;100.00;101449.28;5062287;28;20090;-74
2024/02/27 03:24:47;;;;;;;28.80;17.70;;;;;;;2.90;100.00;101457.13;5063084;28;20035;-75
2024/02/27 03:27:12;;;;;;;29.75;17.55;;;;;;;2.92;100.00;101458.94;5063493;28;20067;-74
2024/02/27 03:29:38;;;;;;;29.75;18.05;;;;;;;2.90;100.00;101454.50;5061609;28;20029;-74
2024/02/27 03:32:04;;;;;;;31.05;18.15;;;;;;;2.88;100.00;101448.31;5064599;28;20426;-75
2024/02/27 03:34:29;;;;;;;29.15;17.65;;;;;;;2.89;100.00;101456.22;5059617;28;20040;-74
2024/02/27 03:36:55;;;;;;;30.08;18.10;;;;;;;2.90;100.00;101457.13;5064132;28;20020;-74
2024/02/27 03:39:20;;;;;;;30.85;18.48;;;;;;;2.90;100.00;101454.50;5062417;28;20029;-74
2024/02/27 03:41:46;;;;;;;30.42;18.80;;;;;;;2.87;100.00;101455.25;5062878;28;20029;-75
2024/02/27 03:44:11;;;;;;;30.23;18.35;;;;;;;2.87;100.00;101446.50;5063224;28;20028;-74
2024/02/27 03:46:37;;;;;;;30.33;18.45;;;;;;;2.87;100.00;101441.28;5061682;28;20029;-74
2024/02/27 03:49:02;;;;;;;29.00;17.60;;;;;;;2.87;100.00;101446.50;5062949;28;20055;-74
2024/02/27 03:51:27;;;;;;;30.65;18.85;;;;;;;2.85;100.00;101438.59;5060839;28;20411;-74
2024/02/27 03:53:53;;;;;;;30.95;18.17;;;;;;;2.82;100.00;101438.47;5063539;28;20555;-74
2024/02/27 03:56:18;;;;;;;30.17;17.98;;;;;;;2.79;100.00;101441.81;5062127;28;20029;-75
2024/02/27 03:58:46;;;;;;;30.08;18.00;;;;;;;2.77;100.00;101435.66;5061924;28;20036;-74
2024/02/27 04:01:15;;;;;;;28.92;17.25;;;;;;;2.74;100.00;101445.97;5045751;28;20124;-74
2024/02/27 04:03:41;;;;;;;29.33;17.50;;;;;;;2.71;100.00;101445.81;5061530;28;20032;-74
2024/02/27 04:06:06;;;;;;;30.15;18.35;;;;;;;2.68;100.00;101444.78;5063476;28;20049;-74
2024/02/27 04:08:31;;;;;;;30.50;18.52;;;;;;;2.65;100.00;101461.22;5060779;28;20539;-74
2024/02/27 04:10:57;;;;;;;30.67;18.02;;;;;;;2.59;100.00;101459.22;5063659;28;20036;-75
2024/02/27 04:13:23;;;;;;;30.90;18.90;;;;;;;2.59;100.00;101474.88;5061772;28;20108;-74
2024/02/27 04:15:49;;;;;;;30.55;18.45;;;;;;;2.55;100.00;101482.47;5063024;28;20029;-74
2024/02/27 04:18:15;;;;;;;30.88;18.67;;;;;;;2.53;100.00;101471.06;5062466;28;20024;-76
2024/02/27 04:20:40;;;;;;;30.25;18.30;;;;;;;2.54;100.00;101480.69;5061329;28;20100;-74
2024/02/27 04:23:06;;;;;;;30.48;18.75;;;;;;;2.53;100.00;101482.41;5064181;28;20055;-79
2024/02/27 04:25:31;;;;;;;31.20;18.48;;;;;;;2.48;100.00;101481.31;5060477;28;20033;-79
2024/02/27 04:27:57;;;;;;;31.17;18.95;;;;;;;2.46;100.00;101489.88;5067491;28;20028;-82
2024/02/27 04:30:22;;;;;;;31.45;18.83;;;;;;;2.38;100.00;101474.75;5065209;28;20387;-77
2024/02/27 04:32:48;;;;;;;30.75;18.08;;;;;;;2.30;100.00;101472.59;5066210;28;20029;-81
2024/02/27 04:35:14;;;;;;;29.83;17.98;;;;;;;2.24;100.00;101475.78;5066612;28;20052;-80
2024/02/27 04:37:39;;;;;;;31.60;18.95;;;;;;;2.18;100.00;101478.13;5064864;28;20029;-79
2024/02/27 04:40:05;;;;;;;30.38;18.23;;;;;;;2.13;100.00;101482.22;5067644;28;20027;-76
2024/02/27 04:42:31;;;;;;;30.88;18.63;;;;;;;2.08;100.00;101477.69;5063126;28;20063;-77
2024/02/27 04:44:56;;;;;;;32.38;19.65;;;;;;;2.03;100.00;101486.97;5066029;28;20376;-80
2024/02/27 04:47:21;;;;;;;31.40;18.60;;;;;;;2.01;100.00;101487.72;5065143;28;20032;-74
2024/02/27 04:49:47;;;;;;;31.02;18.40;;;;;;;1.94;100.00;101496.97;5064580;28;20041;-77
2024/02/27 04:52:12;;;;;;;31.27;18.85;;;;;;;1.90;100.00;101497.63;5066190;28;20111;-79
2024/02/27 04:54:38;;;;;;;31.70;18.92;;;;;;;1.86;100.00;101503.50;5063126;28;20033;-80
2024/02/27 04:57:03;;;;;;;32.33;19.27;;;;;;;1.77;100.00;101503.03;5067567;28;20062;-80
2024/02/27 04:59:29;;;;;;;31.25;18.80;;;;;;;1.68;100.00;101504.34;5063970;28;20033;-82
2024/02/27 05:01:55;;;;;;;32.47;19.27;;;;;;;1.63;100.00;101508.44;5048124;28;20032;-78
2024/02/27 05:04:21;;;;;;;32.15;19.67;;;;;;;1.53;100.00;101520.09;5065126;28;20030;-77
2024/02/27 05:06:46;;;;;;;32.33;19.08;;;;;;;1.48;100.00;101526.78;5065186;28;20120;-78
2024/02/27 05:09:11;;;;;;;33.70;19.92;;;;;;;1.45;100.00;101530.94;5066279;28;20032;-74
2024/02/27 05:11:37;;;;;;;32.83;19.42;;;;;;;1.41;100.00;101531.59;5063862;28;20033;-79
2024/02/27 05:14:03;;;;;;;31.98;18.27;;;;;;;1.36;100.00;101532.25;5067134;28;20025;-78
2024/02/27 05:16:29;;;;;;;32.45;19.67;;;;;;;1.31;100.00;101531.13;5063971;28;20021;-77
2024/02/27 05:18:54;;;;;;;32.85;20.92;;;;;;;1.24;100.00;101534.22;5066182;28;20494;-81
2024/02/27 05:21:20;;;;;;;45.25;36.40;;;;;;;1.23;100.00;101548.03;5065089;28;20117;-75
2024/02/27 05:23:46;;;;;;;36.45;24.25;;;;;;;1.17;100.00;101545.13;5064933;28;20032;-75
2024/02/27 05:26:12;;;;;;;36.08;23.67;;;;;;;1.14;100.00;101553.66;5066010;28;20021;-74
2024/02/27 05:28:38;;;;;;;36.50;25.70;;;;;;;1.10;100.00;101548.22;5063684;28;20163;-75
2024/02/27 05:31:24;;;;;;;37.05;25.25;;;;;;;1.13;100.00;101556.19;5066993;28;20124;-74
2024/02/27 05:33:51;;;;;;;35.38;22.38;;;;;;;1.07;100.00;101563.66;5062941;28;20026;-74
2024/02/27 05:36:16;;;;;;;48.72;36.92;;;;;;;1.01;100.00;101554.69;5063624;28;20091;-74
2024/02/27 05:38:42;;;;;;;40.10;28.73;;;;;;;1.01;100.00;101567.72;5063005;28;20507;-74
2024/02/27 05:41:08;;;;;;;34.47;20.88;;;;;;;0.98;100.00;101569.28;5066484;28;20480;-74
2024/02/27 05:43:33;;;;;;;33.83;21.25;;;;;;;0.96;100.00;101571.78;5063103;28;20040;-74
2024/02/27 05:45:58;;;;;;;35.85;22.67;;;;;;;0.96;100.00;101568.28;5066352;28;20044;-74
2024/02/27 05:48:24;;;;;;;35.17;22.58;;;;;;;0.92;100.00;101574.13;5062822;28;20035;-74
2024/02/27 05:50:49;;;;;;;39.67;27.75;;;;;;;0.95;100.00;101579.53;5063335;28;20033;-74
2024/02/27 05:53:14;;;;;;;38.33;26.38;;;;;;;0.92;100.00;101590.66;5065132;28;20507;-74
2024/02/27 05:55:40;;;;;;;36.10;22.98;;;;;;;0.87;100.00;101584.28;5062130;28;20029;-74
2024/02/27 05:58:05;;;;;;;36.97;23.08;;;;;;;0.85;100.00;101581.59;5048290;28;20025;-74
2024/02/27 06:00:30;;;;;;;37.75;23.38;;;;;;;0.83;100.00;101588.44;5057724;28;20126;-74
2024/02/27 06:02:56;;;;;;;37.80;23.60;;;;;;;0.79;100.00;101589.06;5065463;28;20063;-74
2024/02/27 06:05:21;;;;;;;37.95;23.35;;;;;;;0.80;100.00;101595.16;5062361;28;20129;-74
2024/02/27 06:07:47;;;;;;;36.88;22.23;;;;;;;0.77;100.00;101595.91;5064467;28;20032;-74
2024/02/27 06:10:13;;;;;;;46.13;33.88;;;;;;;0.78;100.00;101602.00;5065085;28;20029;-74
2024/02/27 06:12:38;;;;;;;42.28;29.27;;;;;;;0.78;100.00;101604.59;5062917;28;20025;-74
2024/02/27 06:15:04;;;;;;;41.60;29.33;;;;;;;0.81;100.00;101617.78;5066169;28;20391;-74
2024/02/27 06:17:29;;;;;;;49.42;40.10;;;;;;;0.81;100.00;101620.41;5062567;28;20059;-74
2024/02/27 06:19:59;;;;;;;40.03;27.85;;;;;;;0.88;100.00;101616.44;5063969;28;20082;-73
2024/02/27 06:22:25;;;;;;;47.67;36.30;;;;;;;0.90;100.00;101623.50;5061874;28;20032;-75
2024/02/27 06:24:50;;;;;;;41.15;28.05;;;;;;;0.95;100.00;101637.69;5064292;28;20106;-74
2024/02/27 06:27:16;;;;;;;40.88;27.45;;;;;;;0.97;100.00;101630.84;5064447;28;20368;-74
2024/02/27 06:29:41;;;;;;;46.28;34.58;;;;;;;1.06;100.00;101633.06;5061925;28;20029;-74
2024/02/27 06:32:10;;;;;;;39.25;25.45;;;;;;;1.06;100.00;101640.00;5065373;28;20052;-74
2024/02/27 06:34:35;;;;;;;39.42;24.50;;;;;;;1.09;100.00;101646.25;5062127;28;20029;-74
2024/02/27 06:37:01;;;;;;;39.97;25.35;;;;;;;1.11;100.00;101647.25;5065924;28;20111;-74
2024/02/27 06:39:26;;;;;;;36.33;22.25;;;;;;;1.17;100.00;101647.59;5062471;28;20060;-74
2024/02/27 06:41:52;;;;;;;36.33;22.60;;;;;;;1.18;100.00;101644.19;5063996;28;20021;-75
2024/02/27 06:44:18;;;;;;;37.17;22.95;;;;;;;1.18;100.00;101645.88;5063906;28;20024;-75
2024/02/27 06:46:43;;;;;;;35.88;22.13;;;;;;;1.20;100.00;101645.16;5063006;28;20483;-74
2024/02/27 06:49:09;;;;;;;36.20;21.88;;;;;;;1.21;100.00;101646.06;5063603;28;20033;-74
2024/02/27 06:51:35;;;;;;;38.15;25.13;;;;;;;1.25;100.00;101653.22;5061749;28;20426;-74
2024/02/27 06:54:00;;;;;;;36.58;22.23;;;;;;;1.25;100.00;101647.13;5064856;28;20029;-74
2024/02/27 06:56:26;;;;;;;36.20;22.60;;;;;;;1.24;100.00;101650.53;5062464;28;20025;-75
2024/02/27 06:58:53;;;;;;;35.55;22.27;;;;;;;1.28;100.00;101648.19;5063677;28;20078;-74
2024/02/27 07:01:19;;;;;;;35.90;22.02;;;;;;;1.27;100.00;101653.28;5063245;28;20039;-74
2024/02/27 07:03:44;;;;;;;36.40;22.20;;;;;;;1.28;100.00;101645.59;5062965;28;20037;-74
2024/02/27 07:06:09;;;;;;;35.67;21.65;;;;;;;1.26;100.00;101647.19;5064336;28;20518;-74
2024/02/27 07:08:35;;;;;;;35.78;21.83;;;;;;;1.20;100.00;101646.88;5061426;28;20475;-74
2024/02/27 07:11:00;;;;;;;35.50;21.13;;;;;;;1.18;100.00;101632.84;5063651;28;20082;-75
2024/02/27 07:13:25;;;;;;;36.53;21.98;;;;;;;1.15;100.00;101636.19;5062079;28;20076;-74
2024/02/27 07:15:51;;;;;;;35.53;21.95;;;;;;;1.10;100.00;101626.34;5063283;28;20017;-74
2024/02/27 07:18:17;;;;;;;36.42;22.08;;;;;;;1.04;100.00;101632.97;5063542;28;20426;-74
2024/02/27 07:20:43;;;;;;;35.50;22.08;;;;;;;1.01;100.00;101643.22;5060804;28;20025;-74
2024/02/27 07:23:08;;;;;;;36.53;22.48;;;;;;;0.99;100.00;101637.06;5064271;28;20069;-74
2024/02/27 07:25:34;;;;;;;36.88;22.95;;;;;;;1.01;100.00;101644.97;5061317;28;20049;-75
2024/02/27 07:27:59;;;;;;;36.88;22.95;;;;;;;1.01;100.00;101644.97;5064184;28;20028;-74
2024/02/27 07:30:26;;;;;;;38.63;22.77;;;;;;;0.98;100.00;101643.06;5062068;28;20114;-74
2024/02/27 07:32:52;;;;;;;37.83;23.48;;;;;;;0.98;100.00;101648.28;5063239;28;20033;-74
2024/02/27 07:35:17;;;;;;;37.90;22.75;;;;;;;1.07;100.00;101660.03;5061374;28;20020;-74
2024/02/27 07:37:43;;;;;;;38.55;23.58;;;;;;;1.19;100.00;101658.09;5060940;28;20036;-74
2024/02/27 07:40:09;;;;;;;38.33;23.75;;;;;;;1.36;100.00;101667.72;5063963;28;20037;-75
2024/02/27 07:42:35;;;;;;;37.03;23.17;;;;;;;1.47;100.00;101675.22;5060330;28;20354;-74
2024/02/27 07:45:00;;;;;;;38.00;23.75;;;;;;;1.55;100.00;101673.97;5064511;28;20039;-74
2024/02/27 07:47:26;;;;;;;38.30;24.05;;;;;;;1.67;100.00;101674.59;5061144;28;20052;-74
2024/02/27 07:49:51;;;;;;;37.40;23.50;;;;;;;1.80;100.00;101665.72;5063172;28;20040;-74
2024/02/27 07:52:16;;;;;;;36.45;23.20;;;;;;;1.93;100.00;101672.50;5062827;28;20467;-79
2024/02/27 07:54:42;;;;;;;36.53;22.92;;;;;;;2.18;100.00;101668.56;5061885;28;20025;-81
2024/02/27 07:57:07;;;;;;;36.00;22.30;;;;;;;2.30;100.00;101670.91;5063510;28;20029;-83
2024/02/27 07:59:33;;;;;;;34.90;21.80;;;;;;;2.41;100.00;101672.34;5060026;28;20029;-82
2024/02/27 08:01:58;;;;;;;33.80;21.17;;;;;;;2.48;100.00;101671.84;5063565;28;20024;-82
2024/02/27 08:04:23;;;;;;;32.78;20.13;;;;;;;2.65;100.00;101674.38;5061283;28;20041;-82
2024/02/27 08:06:49;;;;;;;32.42;19.80;;;;;;;2.85;100.00;101672.78;5062828;28;20431;-81
2024/02/27 08:09:17;;;;;;;31.92;19.77;;;;;;;3.04;100.00;101667.59;5062393;28;20032;-83
2024/02/27 08:11:44;;;;;;;30.65;19.63;;;;;;;3.20;100.00;101674.47;5060769;28;20026;-83
2024/02/27 08:14:09;;;;;;;30.38;18.90;;;;;;;3.39;100.00;101676.22;5063153;28;20025;-75
2024/02/27 08:16:35;;;;;;;30.60;18.67;;;;;;;3.64;100.00;101677.34;5060819;28;20396;-75
2024/02/27 08:19:04;;;;;;;29.52;17.80;;;;;;;3.82;100.00;101672.97;5063848;28;20047;-73
2024/02/27 08:21:35;;;;;;;28.75;17.15;;;;;;;3.99;100.00;101676.34;5056573;28;20025;-74
2024/02/27 08:24:02;;;;;;;28.88;17.60;;;;;;;4.26;100.00;101681.00;5056475;28;20040;-75
2024/02/27 08:26:27;;;;;;;26.63;15.65;;;;;;;4.56;100.00;101690.09;5063405;28;20432;-75
2024/02/27 08:28:52;;;;;;;26.45;15.70;;;;;;;4.86;100.00;101690.50;5061536;28;20110;-75
2024/02/27 08:31:19;;;;;;;26.75;16.00;;;;;;;5.15;100.00;101694.28;5062202;28;20032;-76
2024/02/27 08:33:44;;;;;;;27.52;15.77;;;;;;;5.29;100.00;101691.34;5061120;28;20017;-76
2024/02/27 08:36:10;;;;;;;36.05;26.13;;;;;;;5.67;100.00;101699.81;5061212;28;20037;-75
2024/02/27 08:38:35;;;;;;;28.27;18.75;;;;;;;5.86;100.00;101697.03;5063669;28;20111;-75
2024/02/27 08:41:01;;;;;;;27.02;17.35;;;;;;;5.92;100.00;101697.22;5060250;28;20419;-75
2024/02/27 08:43:26;;;;;;;26.45;16.00;;;;;;;5.89;100.00;101705.00;5063410;28;20043;-75
2024/02/27 08:45:52;;;;;;;26.17;15.48;;;;;;;5.86;100.00;101706.63;5061311;28;20064;-75
2024/02/27 08:48:18;;;;;;;26.55;15.63;;;;;;;5.75;100.00;101698.34;5062294;28;20033;-76
2024/02/27 08:50:47;;;;;;;25.95;15.63;;;;;;;5.88;100.00;101716.34;5062273;28;20028;-74
2024/02/27 08:53:13;;;;;;;25.75;14.93;;;;;;;5.77;100.00;101717.69;5061352;28;20448;-74
2024/02/27 08:55:39;;;;;;;25.08;15.35;;;;;;;5.70;100.00;101721.78;5063107;28;20515;-74
2024/02/27 08:58:04;;;;;;;26.33;15.07;;;;;;;5.76;100.00;101719.38;5060011;28;20082;-75
2024/02/27 09:00:30;;;;;;;26.80;15.68;;;;;;;5.69;100.00;101724.34;5056000;28;20043;-74
2024/02/27 09:02:55;;;;;;;25.38;14.85;;;;;;;5.71;100.00;101725.31;5059754;28;20040;-77
2024/02/27 09:05:20;;;;;;;25.92;15.50;;;;;;;5.75;100.00;101728.13;5060216;28;20520;-74
2024/02/27 09:07:46;;;;;;;26.70;16.15;;;;;;;5.86;100.00;101727.63;5063100;28;20032;-76
2024/02/27 09:10:11;;;;;;;25.88;15.02;;;;;;;6.10;100.00;101728.56;5059832;28;20029;-74
2024/02/27 09:12:39;;;;;;;25.27;14.32;;;;;;;6.22;100.00;101722.00;5062252;28;20091;-75
2024/02/27 09:15:05;;;;;;;25.83;14.80;;;;;;;6.20;100.00;101729.78;5064294;28;20028;-74
2024/02/27 09:17:31;;;;;;;26.27;15.45;;;;;;;6.11;100.00;101730.34;5065158;28;20033;-75
2024/02/27 09:19:59;;;;;;;25.13;14.77;;;;;;;6.19;100.00;101733.28;5065384;28;20419;-74
2024/02/27 09:22:24;;;;;;;25.75;14.70;;;;;;;6.42;100.00;101720.97;5064515;28;20025;-74
2024/02/27 09:24:50;;;;;;;24.88;14.05;;;;;;;6.41;100.00;101721.78;5066718;28;20112;-74
2024/02/27 09:27:15;;;;;;;24.42;13.95;;;;;;;6.17;100.00;101726.16;5063332;28;20115;-76
2024/02/27 09:29:42;;;;;;;24.95;14.02;;;;;;;6.02;100.00;101723.88;5066534;28;20039;-75
2024/02/27 09:32:07;;;;;;;25.88;14.63;;;;;;;6.09;100.00;101716.28;5064197;28;20452;-74
2024/02/27 09:34:33;;;;;;;24.90;14.32;;;;;;;6.54;100.00;101714.31;5065307;28;20067;-75
2024/02/27 09:36:58;;;;;;;25.75;14.40;;;;;;;7.41;100.00;101718.97;5065263;28;20036;-76
2024/02/27 09:39:24;;;;;;;24.80;14.02;;;;;;;8.53;100.00;101713.44;5064206;28;20369;-74
2024/02/27 09:42:10;;;;;;;23.98;12.90;;;;;;;9.11;100.00;101713.13;5066378;28;20133;-75
2024/02/27 09:44:41;;;;;;;23.77;12.45;;;;;;;9.49;100.00;101721.03;5065727;28;20108;-75
2024/02/27 09:47:11;;;;;;;23.27;12.20;;;;;;;9.70;100.00;101722.41;5063889;28;20028;-82
2024/02/27 09:49:50;;;;;;;23.55;14.15;;;;;;;10.02;100.00;101725.72;5064359;28;20048;-78
2024/02/27 09:52:16;;;;;;;22.75;12.00;;;;;;;9.88;100.00;101720.13;5062051;28;20029;-77
2024/02/27 09:54:42;;;;;;;21.90;11.18;;;;;;;9.71;100.00;101717.16;5065961;28;20032;-79
2024/02/27 09:57:08;;;;;;;21.73;11.13;;;;;;;9.89;100.00;101705.19;5063417;28;20033;-77
2024/02/27 09:59:35;;;;;;;22.85;11.73;;;;;;;10.24;100.00;101707.66;5063851;28;20495;-80
2024/02/27 10:02:08;;;;;;;22.58;11.48;;;;;;;10.94;100.00;101712.47;5063200;28;20554;-80
2024/02/27 10:04:36;;;;;;;21.80;11.35;;;;;;;11.39;100.00;101710.50;5064655;28;20025;-78
2024/02/27 10:07:05;;;;;;;21.77;10.63;;;;;;;11.50;100.00;101712.47;5064688;28;20375;-77
2024/02/27 10:09:35;;;;;;;22.23;11.18;;;;;;;12.15;100.00;101715.09;5064272;28;20122;-76
2024/02/27 10:12:03;;;;;;;21.40;10.80;;;;;;;12.61;100.00;101712.03;5064510;28;20074;-80
2024/02/27 10:14:37;;;;;;;21.27;10.43;;;;;;;12.84;100.00;101712.25;5064134;28;20553;-78
2024/02/27 10:17:04;;;;;;;21.08;10.25;;;;;;;12.84;100.00;101718.47;5064131;28;20025;-79
2024/02/27 10:19:30;;;;;;;20.92;10.70;;;;;;;11.94;100.00;101721.91;5064024;28;20028;-80
2024/02/27 10:21:56;;;;;;;21.88;10.55;;;;;;;12.05;100.00;101723.81;5064474;28;20025;-80
2024/02/27 10:24:23;;;;;;;21.30;10.60;;;;;;;12.66;100.00;101718.28;5062830;28;20079;-80
2024/02/27 10:26:55;;;;;;;21.10;10.85;;;;;;;13.29;100.00;101717.91;5065622;28;20105;-78
2024/02/27 10:29:26;;;;;;;20.80;10.33;;;;;;;13.89;100.00;101724.50;5062466;28;20028;-75
2024/02/27 10:31:51;;;;;;;21.48;10.70;;;;;;;14.31;100.00;101719.31;5065191;28;20472;-75
2024/02/27 10:34:18;;;;;;;21.38;10.70;;;;;;;14.26;100.00;101731.72;5061997;28;20032;-78
2024/02/27 10:36:44;;;;;;;21.83;11.18;;;;;;;14.27;100.00;101731.72;5057809;28;20472;-78
2024/02/27 10:39:10;;;;;;;21.83;10.60;;;;;;;14.71;100.00;101731.81;5064948;28;20047;-79
2024/02/27 10:41:41;;;;;;;22.55;10.80;;;;;;;14.77;100.00;101732.75;5062958;28;20036;-74
2024/02/27 10:44:08;;;;;;;22.02;11.02;;;;;;;15.32;100.00;101734.50;5064397;28;20480;-75
2024/02/27 10:46:36;;;;;;;20.65;10.00;;;;;;;15.56;100.00;101734.47;5063307;28;20074;-75
2024/02/27 10:49:03;;;;;;;20.80;10.40;;;;;;;16.22;100.00;101731.59;5063801;28;20045;-76
2024/02/27 10:51:30;;;;;;;20.55;10.07;;;;;;;16.14;100.00;101738.75;5063777;28;20103;-75
2024/02/27 10:53:59;;;;;;;21.15;9.90;;;;;;;16.41;100.00;101742.16;5062659;28;20037;-74
2024/02/27 10:56:24;;;;;;;20.70;9.95;;;;;;;17.11;100.00;101734.56;5063372;28;20035;-75
2024/02/27 10:58:54;;;;;;;21.30;10.48;;;;;;;17.39;100.00;101736.09;5062011;28;20041;-76
2024/02/27 11:01:20;;;;;;;20.77;9.95;;;;;;;17.57;100.00;101736.81;5064994;28;20115;-76
2024/02/27 11:03:53;;;;;;;20.20;9.35;;;;;;;17.27;100.00;101728.22;5057428;28;20045;-75